RJFY weather

Kanoya Airport
Kagoshima Prefecture, Japan

Public forecast

Using degrees Celsius for public forecast. Weather courtesy of forecast.io.

METAR (pilot weather report)

Retrieved 2019/07/21 06:10 UTC (2 hours ago):

RJFY 210610Z 24003KT 200V280 9999 -SHRA FEW003 SCT005 BKN015 25/24 Q1011 RMK 2ST003 4ST005 7CU015 A2987

TAF (pilot weather forecast)

Closest forecast is Kagoshima Airport, 26.9 nm (49.9 km) NNW. Retrieved 2019/07/21 06:00 UTC (2 hours ago):

TAF RJFK 210511Z 2106/2212 15005KT 7000 -SHRA FEW005 SCT010 BKN015 TEMPO 2106/2112 3000 -SHRA BR FEW003 BKN005 BKN010 TEMPO 2112/2118 3000 SHRA BR FEW003 BKN005 BKN010 TEMPO 2118/2200 1500 +TSRA BR FEW003 BKN005 BKN010 FEW025CB BECMG 2200/2203 25006KT TEMPO 2200/2206 4000 -SHRA BR FEW003 BKN008 BKN010